createdAt,value
2022-10-18T04:45:16.106Z,33.70
2022-10-18T04:47:18.100Z,33.20
2022-10-18T04:51:22.021Z,33.83
2022-10-18T04:53:23.913Z,32.25
2022-10-18T04:55:25.864Z,36.08
2022-10-18T04:57:27.792Z,34.78
2022-10-18T04:59:29.747Z,38.28
2022-10-18T05:01:31.687Z,36.75
2022-10-18T05:05:49.949Z,33.63
2022-10-18T05:07:57.416Z,36.47
2022-10-18T05:09:59.222Z,36.60
2022-10-18T05:12:01.104Z,34.53
2022-10-18T05:14:02.952Z,36.05
2022-10-18T05:16:05.571Z,38.20
2022-10-18T05:18:07.459Z,34.20
2022-10-18T05:20:10.049Z,34.15
2022-10-18T05:22:11.940Z,35.17
2022-10-18T05:24:13.946Z,34.88
2022-10-18T05:26:15.823Z,37.75
2022-10-18T05:30:40.836Z,41.10
2022-10-18T05:32:42.645Z,38.10
2022-10-18T05:34:44.501Z,40.22
2022-10-18T05:36:46.880Z,40.47
2022-10-18T05:38:48.819Z,40.17
2022-10-18T05:40:50.765Z,40.95
2022-10-18T05:42:53.183Z,37.92
2022-10-18T05:44:55.121Z,37.20
2022-10-18T05:46:56.995Z,41.58
2022-10-18T05:48:59.108Z,38.30
2022-10-18T05:53:12.029Z,38.25
2022-10-18T05:55:14.612Z,42.53
2022-10-18T05:57:16.468Z,43.47
2022-10-18T05:59:18.312Z,42.40
2022-10-18T06:01:20.974Z,37.70
2022-10-18T06:03:22.789Z,37.15
2022-10-18T06:05:24.643Z,39.00
2022-10-18T06:07:26.533Z,36.75
2022-10-18T06:09:28.814Z,34.60
2022-10-18T06:11:31.401Z,38.80
2022-10-18T06:13:33.972Z,40.25
2022-10-18T06:15:35.860Z,39.60
2022-10-18T06:17:37.882Z,40.58
2022-10-18T06:19:40.032Z,45.40
2022-10-18T06:21:43.045Z,42.85
2022-10-18T06:23:52.100Z,41.90
2022-10-18T06:25:54.237Z,41.17
2022-10-18T06:29:57.776Z,39.37
2022-10-18T06:31:59.686Z,39.78
2022-10-18T06:34:02.595Z,38.15
2022-10-18T06:36:08.178Z,37.92
2022-10-18T06:38:10.044Z,36.03
2022-10-18T06:40:12.192Z,36.40
2022-10-18T06:48:22.005Z,32.67
2022-10-18T06:50:23.957Z,31.77
2022-10-18T06:52:25.943Z,29.55
2022-10-18T06:54:27.769Z,30.35
2022-10-18T06:56:29.923Z,30.60
2022-10-18T07:00:33.893Z,28.65
2022-10-18T07:02:37.475Z,29.13
2022-10-18T07:04:39.277Z,27.55
2022-10-18T07:06:41.129Z,27.55
2022-10-18T07:08:43.482Z,24.60
2022-10-18T07:10:53.213Z,27.65
2022-10-18T07:13:08.049Z,24.65
2022-10-18T07:17:19.910Z,21.98
2022-10-18T07:19:21.806Z,21.15
2022-10-18T07:21:25.667Z,21.38
2022-10-18T07:23:27.508Z,19.83
2022-10-18T07:25:30.636Z,21.15
2022-10-18T07:27:40.656Z,20.08
2022-10-18T07:29:42.481Z,18.65
2022-10-18T07:31:44.385Z,19.75
2022-10-18T07:33:46.357Z,19.50
2022-10-18T07:35:48.432Z,16.08
2022-10-18T07:39:52.023Z,7.15
2022-10-18T07:41:54.254Z,6.43
2022-10-18T07:43:56.317Z,6.07
2022-10-18T07:46:01.060Z,6.88
2022-10-18T07:48:02.940Z,6.40
2022-10-18T07:50:04.960Z,6.50
2022-10-18T07:52:06.893Z,5.40
2022-10-18T07:54:09.502Z,5.07
2022-10-18T07:56:16.840Z,5.30
2022-10-18T07:58:18.799Z,5.25
2022-10-18T08:00:20.774Z,5.15
2022-10-18T08:02:24.432Z,5.15
2022-10-18T08:04:26.342Z,4.85
2022-10-18T08:06:28.188Z,5.30
2022-10-18T08:08:30.675Z,5.05
2022-10-18T08:10:34.251Z,4.68
2022-10-18T08:12:36.157Z,5.07
2022-10-18T08:14:38.034Z,4.43
2022-10-18T08:16:39.942Z,4.43
2022-10-18T08:18:41.800Z,3.95
2022-10-18T08:20:45.291Z,3.75
2022-10-18T08:22:51.181Z,4.15
2022-10-18T08:24:53.016Z,5.50
2022-10-18T08:26:54.908Z,5.55
2022-10-18T08:29:17.596Z,4.75
2022-10-18T08:31:20.128Z,4.28
2022-10-18T08:33:22.918Z,4.93
2022-10-18T08:35:24.906Z,4.13
2022-10-18T08:37:26.803Z,4.63
2022-10-18T08:39:28.897Z,6.95
2022-10-18T08:43:43.657Z,4.18
2022-10-18T08:45:45.855Z,4.15
2022-10-18T08:47:49.940Z,3.60
2022-10-18T08:49:56.289Z,3.72
2022-10-18T08:51:58.845Z,4.10
2022-10-18T08:54:07.640Z,3.97
2022-10-18T08:56:16.330Z,4.28
2022-10-18T08:58:26.883Z,4.95
2022-10-18T09:00:34.915Z,5.97
2022-10-18T09:02:51.838Z,5.80
2022-10-18T09:04:56.672Z,5.30
2022-10-18T09:07:05.494Z,4.15
2022-10-18T09:09:20.362Z,4.32
2022-10-18T09:11:31.218Z,4.57
2022-10-18T09:14:04.924Z,3.95
2022-10-18T09:16:14.157Z,4.20
2022-10-18T09:18:43.946Z,4.82
2022-10-18T09:20:55.094Z,4.40
2022-10-18T09:23:03.205Z,4.57
2022-10-18T09:25:25.408Z,4.45
2022-10-18T09:27:41.414Z,3.90
2022-10-18T09:30:09.671Z,3.67
2022-10-18T09:32:20.291Z,4.22
2022-10-18T09:34:51.269Z,4.55
2022-10-18T09:36:53.660Z,4.00
2022-10-18T09:39:00.458Z,4.63
2022-10-18T09:41:10.451Z,4.00
2022-10-18T09:43:22.974Z,3.88
2022-10-18T09:45:45.984Z,4.00
2022-10-18T09:47:58.267Z,4.30
2022-10-18T09:52:13.924Z,3.70
2022-10-18T09:54:33.647Z,3.70
2022-10-18T09:56:43.816Z,4.15
2022-10-18T09:58:49.577Z,4.38
2022-10-18T10:00:53.888Z,5.38
2022-10-18T10:02:55.794Z,4.00
2022-10-18T10:04:57.794Z,3.85
2022-10-18T10:09:07.102Z,5.07
2022-10-18T10:11:40.223Z,4.57
2022-10-18T10:13:42.229Z,5.50
2022-10-18T10:15:56.748Z,4.40
2022-10-18T10:18:05.194Z,5.53
2022-10-18T10:20:21.224Z,5.63
2022-10-18T10:22:42.459Z,4.20
2022-10-18T10:24:50.019Z,6.30
2022-10-18T10:27:00.090Z,5.03
2022-10-18T10:29:02.387Z,4.63
2022-10-18T10:31:27.169Z,4.20
2022-10-18T10:33:38.707Z,4.78
2022-10-18T10:35:53.185Z,4.80
2022-10-18T10:37:56.537Z,3.67
2022-10-18T10:40:27.824Z,3.25
2022-10-18T10:42:32.450Z,5.00
2022-10-18T10:44:36.888Z,3.20
2022-10-18T10:46:39.243Z,4.82
2022-10-18T10:49:04.123Z,5.43
2022-10-18T10:51:09.027Z,4.53
2022-10-18T10:53:26.987Z,4.60
2022-10-18T10:55:35.822Z,4.93
2022-10-18T10:57:38.386Z,5.97
2022-10-18T10:59:43.629Z,5.30
2022-10-18T11:01:49.824Z,6.68
2022-10-18T11:03:54.866Z,4.63
2022-10-18T11:06:00.940Z,4.85
2022-10-18T11:08:04.288Z,5.55
2022-10-18T11:10:17.924Z,4.95
2022-10-18T11:12:25.948Z,5.93
2022-10-18T11:14:35.009Z,5.22
2022-10-18T11:16:50.195Z,5.00
2022-10-18T11:18:56.846Z,5.65
2022-10-18T11:21:11.654Z,4.50
2022-10-18T11:23:15.956Z,4.55
2022-10-18T11:25:18.147Z,5.10
2022-10-18T11:27:32.987Z,5.18
2022-10-18T11:29:46.708Z,5.07
2022-10-18T11:32:12.359Z,5.90
2022-10-18T11:34:35.765Z,4.60
2022-10-18T11:37:22.899Z,5.75
2022-10-18T11:39:27.185Z,3.60
2022-10-18T11:41:36.413Z,7.20
2022-10-18T11:44:03.285Z,5.15
2022-10-18T11:46:20.556Z,4.97
2022-10-18T11:48:41.054Z,4.72
2022-10-18T11:51:03.248Z,5.60
2022-10-18T11:53:12.256Z,5.63
2022-10-18T11:55:32.764Z,3.50
2022-10-18T11:57:57.203Z,5.60
2022-10-18T12:00:22.958Z,3.17
2022-10-18T12:02:43.459Z,8.52
2022-10-18T12:05:12.080Z,5.30
2022-10-18T12:07:19.772Z,4.35
2022-10-18T12:09:37.640Z,3.58
2022-10-18T12:11:47.457Z,3.55
2022-10-18T12:13:57.784Z,4.57
2022-10-18T12:16:00.792Z,5.13
2022-10-18T12:18:11.139Z,8.48
2022-10-18T12:20:25.738Z,9.35
2022-10-18T12:22:38.118Z,5.55
2022-10-18T12:24:40.987Z,4.80
2022-10-18T12:26:43.081Z,6.60
2022-10-18T12:31:08.215Z,3.97
2022-10-18T12:33:28.145Z,3.88
2022-10-18T12:35:35.943Z,3.88
2022-10-18T12:37:59.735Z,4.55
2022-10-18T12:40:11.144Z,4.50
2022-10-18T12:42:25.990Z,6.32
2022-10-18T12:44:35.598Z,4.40
2022-10-18T12:46:48.644Z,4.57
2022-10-18T12:49:12.539Z,4.55
2022-10-18T12:51:20.292Z,4.45
2022-10-18T12:53:27.265Z,5.28
2022-10-18T12:55:32.851Z,4.82
2022-10-18T12:58:02.826Z,3.33
2022-10-18T13:00:05.291Z,3.80
2022-10-18T13:02:07.679Z,2.90
2022-10-18T13:04:29.684Z,2.90
2022-10-18T13:07:11.702Z,2.97
2022-10-18T13:09:21.837Z,3.23
2022-10-18T13:11:36.104Z,3.55
2022-10-18T13:13:56.226Z,2.90
2022-10-18T13:16:04.065Z,2.97
2022-10-18T13:18:27.762Z,2.65
2022-10-18T13:20:38.089Z,3.25
2022-10-18T13:23:04.932Z,3.30
2022-10-18T13:25:21.466Z,2.85
2022-10-18T13:27:36.020Z,3.13
2022-10-18T13:30:26.263Z,2.83
2022-10-18T13:32:47.474Z,2.85
2022-10-18T13:34:50.086Z,3.67
2022-10-18T13:37:18.017Z,3.35
2022-10-18T13:39:21.005Z,3.35
2022-10-18T13:41:57.513Z,5.13
2022-10-18T13:44:11.682Z,5.43
2022-10-18T13:46:13.668Z,5.32
2022-10-18T13:50:41.621Z,7.15
2022-10-18T13:52:59.014Z,7.53
2022-10-18T13:55:21.992Z,6.65
2022-10-18T13:57:50.498Z,7.88
2022-10-18T14:00:23.230Z,9.93
2022-10-18T14:05:25.246Z,9.45
2022-10-18T14:07:28.678Z,8.55
2022-10-18T14:09:56.880Z,8.00
2022-10-18T14:12:11.486Z,7.45
2022-10-18T14:14:34.517Z,7.63
2022-10-18T14:16:50.357Z,7.93
2022-10-18T14:18:58.368Z,9.25
2022-10-18T14:21:13.722Z,10.27
2022-10-18T14:23:20.133Z,11.45
2022-10-18T14:25:28.466Z,12.15
2022-10-18T14:27:33.058Z,13.70
2022-10-18T14:29:35.312Z,17.02
2022-10-18T14:31:38.127Z,19.15
2022-10-18T14:33:42.539Z,20.90
2022-10-18T14:35:44.386Z,23.60
2022-10-18T14:37:49.281Z,18.17
2022-10-18T14:39:51.213Z,10.82
2022-10-18T14:41:55.000Z,11.07
2022-10-18T14:44:21.559Z,11.93
2022-10-18T14:46:29.074Z,11.93
2022-10-18T14:48:33.060Z,14.45
2022-10-18T14:50:35.128Z,16.25
2022-10-18T14:54:38.865Z,19.00
2022-10-18T15:00:48.495Z,21.00
2022-10-18T15:02:50.927Z,20.33
2022-10-18T15:05:05.607Z,19.85
2022-10-18T15:07:14.746Z,21.50
2022-10-18T15:09:21.819Z,18.58
2022-10-18T15:11:25.399Z,19.23
2022-10-18T15:13:27.816Z,22.33
2022-10-18T15:15:32.431Z,23.27
2022-10-18T15:17:35.367Z,23.15
2022-10-18T15:19:42.904Z,21.58
2022-10-18T15:22:30.904Z,19.60
2022-10-18T15:24:29.863Z,19.75
2022-10-18T15:26:31.788Z,18.50
2022-10-18T15:28:39.407Z,16.33
2022-10-18T15:30:43.137Z,19.02
2022-10-18T15:33:00.148Z,24.92
2022-10-18T15:35:35.846Z,19.50
2022-10-18T15:37:46.304Z,16.73
2022-10-18T15:39:48.156Z,17.27
2022-10-18T15:41:58.286Z,18.42
2022-10-18T15:44:28.394Z,19.50
2022-10-18T15:46:32.329Z,22.58
2022-10-18T15:48:35.878Z,25.40
2022-10-18T15:50:42.794Z,27.38
2022-10-18T15:52:44.708Z,27.25
2022-10-18T15:54:46.535Z,24.08
2022-10-18T15:56:48.448Z,25.00
2022-10-18T15:58:51.403Z,24.10
2022-10-18T16:00:57.556Z,23.38
2022-10-18T16:02:59.412Z,21.90
2022-10-18T16:05:02.662Z,21.92
2022-10-18T16:07:05.168Z,24.55
2022-10-18T16:09:07.180Z,19.05
2022-10-18T16:11:20.926Z,19.65
2022-10-18T16:13:22.918Z,21.38
2022-10-18T16:15:24.844Z,21.45
2022-10-18T16:17:26.717Z,20.08
2022-10-18T16:19:28.935Z,17.67
2022-10-18T16:21:33.927Z,17.95
2022-10-18T16:23:35.915Z,17.70
2022-10-18T16:25:37.887Z,17.02
2022-10-18T16:27:39.841Z,16.35
2022-10-18T16:29:41.852Z,15.63
2022-10-18T16:31:43.784Z,17.48
2022-10-18T16:33:46.768Z,18.92
2022-10-18T16:35:48.980Z,16.48
2022-10-18T16:37:50.865Z,14.80
2022-10-18T16:39:52.786Z,14.25
2022-10-18T16:41:54.815Z,14.00
2022-10-18T16:43:57.066Z,15.20
2022-10-18T16:45:59.125Z,14.63
2022-10-18T16:48:01.043Z,15.65
2022-10-18T16:50:08.092Z,15.70
2022-10-18T16:52:10.067Z,18.02
2022-10-18T16:54:11.997Z,19.50
2022-10-18T16:56:20.001Z,22.92
2022-10-18T17:00:25.886Z,19.25
2022-10-18T17:02:27.818Z,20.45
2022-10-18T17:04:29.768Z,20.85
2022-10-18T17:06:34.396Z,36.40
2022-10-18T17:08:36.350Z,34.63
2022-10-18T17:10:38.395Z,35.97
2022-10-18T17:14:42.121Z,23.10
2022-10-18T17:16:46.651Z,22.17
2022-10-18T17:18:53.238Z,18.60
2022-10-18T17:20:55.318Z,19.00
2022-10-18T17:24:59.069Z,26.60
2022-10-18T17:27:00.887Z,25.00
2022-10-18T17:29:05.758Z,21.52
2022-10-18T17:31:08.640Z,21.05
2022-10-18T17:33:11.680Z,21.00
2022-10-18T17:35:13.914Z,21.67
2022-10-18T17:37:15.806Z,22.38
2022-10-18T17:39:17.808Z,24.70
2022-10-18T17:41:19.958Z,19.20
2022-10-18T17:45:24.054Z,16.70
2022-10-18T17:47:26.323Z,17.40
2022-10-18T17:49:28.706Z,15.50
2022-10-18T17:51:30.675Z,15.90
2022-10-18T17:53:34.973Z,15.27
2022-10-18T17:55:36.931Z,15.32
2022-10-18T17:57:39.964Z,13.73
2022-10-18T17:59:42.195Z,14.70
2022-10-18T18:01:44.106Z,14.07
2022-10-18T18:03:47.845Z,12.30
2022-10-18T18:05:49.915Z,12.65
2022-10-18T18:07:51.982Z,12.90
2022-10-18T18:11:55.873Z,12.70
2022-10-18T18:16:19.724Z,13.15
2022-10-18T18:18:21.611Z,11.63
2022-10-18T18:20:24.513Z,12.55
2022-10-18T18:22:26.462Z,12.30
2022-10-18T18:24:28.526Z,11.88
2022-10-18T18:28:36.960Z,11.75
2022-10-18T19:07:25.072Z,9.77
2022-10-18T19:11:35.094Z,9.18
2022-10-18T19:13:37.430Z,9.05
2022-10-18T19:15:39.360Z,8.95
2022-10-18T19:17:41.216Z,9.15
2022-10-18T19:19:43.636Z,8.15
2022-10-18T19:21:49.490Z,9.85
2022-10-18T19:23:53.803Z,8.18
2022-10-18T19:26:08.457Z,8.23
2022-10-18T19:28:10.389Z,8.32
2022-10-18T19:30:12.542Z,7.85
2022-10-18T19:34:20.381Z,8.35
2022-10-18T19:49:50.515Z,9.15
2022-10-18T19:51:52.379Z,10.15
2022-10-18T19:53:55.549Z,10.73
2022-10-18T19:56:00.652Z,12.00
2022-10-18T19:58:02.528Z,10.93
2022-10-18T20:00:08.202Z,11.15
2022-10-18T20:02:15.218Z,9.52
2022-10-18T20:04:17.668Z,9.10
2022-10-18T20:06:19.869Z,9.35
2022-10-18T20:08:22.002Z,9.57
2022-10-18T20:12:26.678Z,8.98
2022-10-18T20:14:28.539Z,8.20
2022-10-18T20:16:32.666Z,8.10
2022-10-18T20:18:35.118Z,8.43
2022-10-18T20:20:37.333Z,8.68
2022-10-18T20:22:39.154Z,9.30
2022-10-18T20:24:40.985Z,8.10
2022-10-18T20:26:43.802Z,9.30
2022-10-18T20:28:47.403Z,9.02
2022-10-18T20:30:49.234Z,9.95
2022-10-18T20:32:54.478Z,9.48
2022-10-18T20:34:56.308Z,9.02
2022-10-18T20:36:58.146Z,10.05
2022-10-18T20:39:00.808Z,12.25
2022-10-18T20:41:14.654Z,13.52
2022-10-18T20:43:16.511Z,13.00
2022-10-18T20:45:18.443Z,14.00
2022-10-18T20:47:20.265Z,13.60
2022-10-18T20:49:22.085Z,11.80
2022-10-18T20:51:24.308Z,11.05
2022-10-18T20:53:26.134Z,10.68
2022-10-18T20:55:29.515Z,10.40
2022-10-18T20:57:34.164Z,9.63
2022-10-18T20:59:38.289Z,9.98
2022-10-18T21:01:40.380Z,10.27
2022-10-18T21:07:46.604Z,9.20
2022-10-18T21:09:48.466Z,8.48
2022-10-18T21:11:53.798Z,9.93
2022-10-18T21:14:02.785Z,9.45
2022-10-18T21:16:07.432Z,9.07
2022-10-18T21:18:09.259Z,9.15
2022-10-18T21:20:11.982Z,9.60
2022-10-18T21:22:13.820Z,10.38
2022-10-18T21:24:16.443Z,10.48
2022-10-18T21:26:21.452Z,9.48
2022-10-18T21:28:24.663Z,9.55
2022-10-18T21:30:26.640Z,9.70
2022-10-18T21:32:28.512Z,10.02
2022-10-18T21:34:30.454Z,9.95
2022-10-18T21:36:34.763Z,9.15
2022-10-18T21:38:36.999Z,9.85
2022-10-18T21:40:45.771Z,9.70
2022-10-18T21:42:48.779Z,9.48
2022-10-18T21:44:50.855Z,14.27
2022-10-18T21:48:56.676Z,14.13
2022-10-18T21:51:06.838Z,16.50
2022-10-18T21:53:13.730Z,20.40
2022-10-18T21:55:15.945Z,19.40
2022-10-18T21:57:17.755Z,17.48
2022-10-18T21:59:19.733Z,17.52
2022-10-18T22:01:26.722Z,17.23
2022-10-18T22:03:28.634Z,19.88
2022-10-18T22:05:30.486Z,17.38
2022-10-18T22:07:32.425Z,17.27
2022-10-18T22:11:43.732Z,15.47
2022-10-18T22:13:46.152Z,14.57
2022-10-18T22:15:48.028Z,16.40
2022-10-18T22:17:49.964Z,15.95
2022-10-18T22:19:51.787Z,16.50
2022-10-18T22:21:53.707Z,16.40
2022-10-18T22:23:57.222Z,13.57
2022-10-18T22:26:11.520Z,17.50
2022-10-18T22:28:13.368Z,12.10
2022-10-18T22:30:15.486Z,13.35
2022-10-18T22:34:21.924Z,12.70
2022-10-18T22:36:24.721Z,11.07
2022-10-18T22:38:26.545Z,11.85
2022-10-18T22:40:28.589Z,11.05
2022-10-18T22:44:34.120Z,11.63
2022-10-18T22:46:35.995Z,11.30
2022-10-18T22:48:38.384Z,12.20
2022-10-18T22:50:40.212Z,12.65
2022-10-18T22:52:42.092Z,11.55
2022-10-18T22:54:43.965Z,12.98
2022-10-18T22:56:45.784Z,13.48
2022-10-18T22:58:48.254Z,13.60
2022-10-18T23:00:50.404Z,11.25
2022-10-18T23:04:53.924Z,11.63
2022-10-18T23:06:55.784Z,16.38
2022-10-18T23:08:59.609Z,12.23
2022-10-18T23:11:01.491Z,13.38
2022-10-18T23:13:03.836Z,13.68
2022-10-18T23:15:06.069Z,13.73
2022-10-18T23:17:07.943Z,12.27
2022-10-18T23:19:15.622Z,12.70
2022-10-18T23:21:18.170Z,13.90
2022-10-18T23:23:19.976Z,11.50
2022-10-18T23:25:22.038Z,12.68
2022-10-18T23:29:25.621Z,11.77
2022-10-18T23:31:33.012Z,13.98
2022-10-18T23:33:35.277Z,12.85
2022-10-18T23:35:37.230Z,14.30
2022-10-18T23:37:39.087Z,14.50
2022-10-18T23:39:40.949Z,12.27
2022-10-18T23:41:42.827Z,11.35
2022-10-18T23:43:45.329Z,14.80
2022-10-18T23:47:53.893Z,13.45
2022-10-18T23:49:57.310Z,13.93
2022-10-18T23:51:59.210Z,12.95
2022-10-18T23:54:01.088Z,13.95
2022-10-18T23:56:06.541Z,15.88
2022-10-18T23:58:08.371Z,14.23
